aviador You're here:

LEMG Decoded Metar

MALAGA in SPAIN
Report Time2017-09-25 16:30:00
UTC Time2017-09-25 16:52:38
Flight Rules vfr VFR
Wind040° at 09 kt
W.Decomp.*RWY 12: 1.7 kt HW 8.8 kt LCW
RWY 13: 0.2 kt HW 9 kt LCW
W.Rank040° ranks 32
Current wind is above 040° avg. (4.0)
Visibility9999 m
Phenomena:N/A
Clouds:N/A
Expected CloudBase > 3,200 ft AGL from Temp-Dew spread
CeilingNone
Temp26°C (ISA +11)
Dew Point18°C (61% RH)
AAT25.5°C
QNH1017 hPa
Density Alt1,440 ft
Elevation23 ft
Report Wrong Elevation
Raw Report
LEMG 251630Z 04009KT 360V070 CAVOK 26/18 Q1017 NOSIG=

Extra information for LEMG:More info

Metar Taf Metar & Taf Last 4 Metars F.Rules Stats Wind Profile Meteogram Temp Stats Airport Information Weather charts Add Link Nearby VenuesMetar ALERT Operation Metar Decoded Social comments